Time;durP1;ratioP1;P1;durP2;ratioP2;P2;SDS_P1;SDS_P2;PMS_P1;PMS_P2;Temp;Humidity;BMP_temperature;BMP_pressure;BME280_temperature;BME280_humidity;BME280_pressure;Samples;Min_cycle;Max_cycle;Signal;HPM_P1;HPM_P2
2022/03/01 00:00:15;;;;;;;75.70;9.35;;;;;;;;;;5091975;28;20208;-68
2022/03/01 00:02:43;;;;;;;67.15;9.50;;;;;;;;;;5091869;28;20220;-68
2022/03/01 00:05:12;;;;;;;71.20;9.18;;;;;;;;;;5092004;28;20228;-68
2022/03/01 00:07:39;;;;;;;69.20;9.55;;;;;;;;;;5091353;28;20295;-68
2022/03/01 00:10:07;;;;;;;67.00;8.85;;;;;;;;;;5091713;28;20681;-68
2022/03/01 00:12:34;;;;;;;68.20;8.82;;;;;;;;;;5091858;28;20212;-68
2022/03/01 00:15:01;;;;;;;69.80;9.38;;;;;;;;;;5091535;28;20230;-68
2022/03/01 00:17:28;;;;;;;71.85;9.63;;;;;;;;;;5091606;28;20207;-69
2022/03/01 00:19:55;;;;;;;72.25;10.02;;;;;;;;;;5091825;28;20238;-68
2022/03/01 00:22:24;;;;;;;67.38;9.05;;;;;;;;;;5094721;28;20764;-68
2022/03/01 00:24:51;;;;;;;69.25;8.93;;;;;;;;;;5095375;28;20589;-68
2022/03/01 00:27:19;;;;;;;70.88;9.77;;;;;;;;;;5095026;28;20204;-68
2022/03/01 00:29:46;;;;;;;76.07;9.85;;;;;;;;;;5095405;28;20656;-68
2022/03/01 00:32:13;;;;;;;71.75;9.27;;;;;;;;;;5095331;28;20208;-69
2022/03/01 00:34:40;;;;;;;71.93;9.55;;;;;;;;;;5095169;28;20226;-70
2022/03/01 00:37:07;;;;;;;66.45;8.23;;;;;;;;;;5094984;28;20287;-71
2022/03/01 00:39:36;;;;;;;73.57;9.68;;;;;;;;;;5095134;28;20205;-68
2022/03/01 00:42:03;;;;;;;72.47;10.23;;;;;;;;;;5095404;28;20576;-68
2022/03/01 00:44:30;;;;;;;72.28;10.07;;;;;;;;;;5094966;28;20220;-69
2022/03/01 00:46:58;;;;;;;69.88;10.02;;;;;;;;;;5095136;28;20204;-69
2022/03/01 00:49:25;;;;;;;78.40;10.40;;;;;;;;;;5094634;28;20698;-69
2022/03/01 00:51:52;;;;;;;72.47;10.07;;;;;;;;;;5094863;28;20652;-69
2022/03/01 00:54:19;;;;;;;70.03;9.40;;;;;;;;;;5094519;28;20196;-69
2022/03/01 00:56:48;;;;;;;72.07;9.30;;;;;;;;;;5094667;28;20207;-68
2022/03/01 00:59:15;;;;;;;74.40;9.40;;;;;;;;;;5094644;28;20291;-70
2022/03/01 01:01:42;;;;;;;69.32;9.10;;;;;;;;;;5094794;28;20291;-69
2022/03/01 01:04:09;;;;;;;70.40;10.13;;;;;;;;;;5094479;28;20722;-69
2022/03/01 01:06:36;;;;;;;74.10;10.63;;;;;;;;;;5094688;28;20227;-69
2022/03/01 01:09:04;;;;;;;71.13;9.35;;;;;;;;;;5096207;28;20208;-69
2022/03/01 01:11:31;;;;;;;69.88;9.65;;;;;;;;;;5108101;28;20299;-70
2022/03/01 01:14:00;;;;;;;69.45;9.30;;;;;;;;;;5109089;28;20268;-69
2022/03/01 01:16:27;;;;;;;69.72;9.82;;;;;;;;;;5109054;28;20252;-70
2022/03/01 01:18:55;;;;;;;75.60;9.65;;;;;;;;;;5108775;28;20268;-70
2022/03/01 01:21:22;;;;;;;71.35;10.05;;;;;;;;;;5109288;28;20235;-70
2022/03/01 01:23:49;;;;;;;65.10;8.95;;;;;;;;;;5109844;28;20292;-71
2022/03/01 01:26:17;;;;;;;65.88;9.23;;;;;;;;;;5109745;28;20252;-69
2022/03/01 01:28:44;;;;;;;72.20;9.85;;;;;;;;;;5109205;28;20662;-71
2022/03/01 01:31:12;;;;;;;72.68;9.43;;;;;;;;;;5108904;28;20208;-69
2022/03/01 01:33:39;;;;;;;69.80;9.93;;;;;;;;;;5109188;28;20265;-69
2022/03/01 01:36:06;;;;;;;74.95;11.00;;;;;;;;;;5108783;28;20259;-69
2022/03/01 01:38:34;;;;;;;69.43;9.45;;;;;;;;;;5107618;28;20652;-68
2022/03/01 01:41:01;;;;;;;72.03;10.13;;;;;;;;;;5106732;28;20215;-70
2022/03/01 01:43:28;;;;;;;69.65;9.80;;;;;;;;;;5106940;28;20267;-70
2022/03/01 01:45:55;;;;;;;66.35;9.07;;;;;;;;;;5106478;28;20216;-69
2022/03/01 01:48:23;;;;;;;70.82;10.18;;;;;;;;;;5100691;28;20291;-70
2022/03/01 01:50:51;;;;;;;72.40;9.32;;;;;;;;;;5096073;28;20200;-70
2022/03/01 01:53:19;;;;;;;70.90;9.85;;;;;;;;;;5106016;28;20287;-71
2022/03/01 01:55:46;;;;;;;73.65;10.35;;;;;;;;;;5106798;28;20255;-69
2022/03/01 01:58:13;;;;;;;73.07;8.98;;;;;;;;;;5101707;28;20210;-69
2022/03/01 02:00:40;;;;;;;72.20;9.68;;;;;;;;;;5095058;28;20299;-71
2022/03/01 02:03:07;;;;;;;73.18;9.98;;;;;;;;;;5094275;28;20207;-69
2022/03/01 02:05:36;;;;;;;69.30;9.80;;;;;;;;;;5094601;28;20256;-70
2022/03/01 02:08:03;;;;;;;71.93;10.13;;;;;;;;;;5093887;28;20292;-69
2022/03/01 02:10:31;;;;;;;71.47;10.88;;;;;;;;;;5094286;28;20219;-69
2022/03/01 02:12:59;;;;;;;70.35;10.43;;;;;;;;;;5094129;28;20277;-70
2022/03/01 02:15:27;;;;;;;79.10;12.02;;;;;;;;;;5093922;28;20634;-69
2022/03/01 02:17:54;;;;;;;71.55;10.15;;;;;;;;;;5093791;28;20207;-69
2022/03/01 02:20:23;;;;;;;67.68;9.82;;;;;;;;;;5093999;28;20584;-69
2022/03/01 02:22:53;;;;;;;72.15;10.40;;;;;;;;;;5093503;28;20336;-69
2022/03/01 02:25:20;;;;;;;71.47;10.40;;;;;;;;;;5093347;28;20232;-69
2022/03/01 02:27:47;;;;;;;69.95;11.00;;;;;;;;;;5092890;28;20298;-69
2022/03/01 02:30:15;;;;;;;71.63;10.60;;;;;;;;;;5093059;28;20675;-69
2022/03/01 02:32:42;;;;;;;71.90;10.00;;;;;;;;;;5093085;28;20200;-70
2022/03/01 02:35:11;;;;;;;71.40;10.27;;;;;;;;;;5092408;28;20303;-70
2022/03/01 02:37:40;;;;;;;69.68;9.73;;;;;;;;;;5092592;28;20738;-69
2022/03/01 02:40:08;;;;;;;66.45;9.00;;;;;;;;;;5093078;28;20291;-69
2022/03/01 02:42:35;;;;;;;77.30;10.38;;;;;;;;;;5092733;28;20588;-68
2022/03/01 02:45:02;;;;;;;73.97;10.20;;;;;;;;;;5091995;28;20228;-70
2022/03/01 02:47:29;;;;;;;67.93;8.90;;;;;;;;;;5092725;28;20206;-70
2022/03/01 02:49:56;;;;;;;70.10;10.02;;;;;;;;;;5093062;28;20310;-69
2022/03/01 02:52:24;;;;;;;66.20;8.50;;;;;;;;;;5092083;28;20208;-69
2022/03/01 02:54:52;;;;;;;70.15;9.65;;;;;;;;;;5092734;28;20220;-69
2022/03/01 02:57:19;;;;;;;68.53;9.35;;;;;;;;;;5092796;28;20214;-69
2022/03/01 02:59:47;;;;;;;75.55;10.68;;;;;;;;;;5093533;28;20201;-69
2022/03/01 03:02:15;;;;;;;71.22;9.93;;;;;;;;;;5093089;28;20204;-69
2022/03/01 03:04:43;;;;;;;69.18;9.63;;;;;;;;;;5092785;28;20236;-70
2022/03/01 03:07:10;;;;;;;72.95;10.98;;;;;;;;;;5092573;28;20269;-70
2022/03/01 03:09:37;;;;;;;70.03;10.00;;;;;;;;;;5092672;28;20287;-69
2022/03/01 03:12:08;;;;;;;73.07;10.02;;;;;;;;;;5092557;28;20204;-69
2022/03/01 03:14:35;;;;;;;70.18;9.82;;;;;;;;;;5092385;28;20307;-69
2022/03/01 03:17:03;;;;;;;71.28;10.52;;;;;;;;;;5092455;28;20606;-69
2022/03/01 03:19:30;;;;;;;70.65;9.75;;;;;;;;;;5092183;28;20208;-69
2022/03/01 03:21:57;;;;;;;72.03;11.60;;;;;;;;;;5092386;28;20200;-69
2022/03/01 03:24:24;;;;;;;69.90;9.15;;;;;;;;;;5091862;28;20315;-68
2022/03/01 03:26:51;;;;;;;67.35;9.60;;;;;;;;;;5092176;28;20200;-69
2022/03/01 03:29:20;;;;;;;72.30;12.00;;;;;;;;;;5091961;28;20604;-69
2022/03/01 03:31:47;;;;;;;68.97;9.80;;;;;;;;;;5092339;28;20580;-69
2022/03/01 03:34:14;;;;;;;71.13;10.85;;;;;;;;;;5091845;28;20727;-69
2022/03/01 03:36:42;;;;;;;71.68;10.73;;;;;;;;;;5091957;28;20208;-69
2022/03/01 03:39:10;;;;;;;68.22;10.77;;;;;;;;;;5092020;28;20208;-69
2022/03/01 03:41:38;;;;;;;70.38;10.13;;;;;;;;;;5092107;28;20300;-69
2022/03/01 03:44:05;;;;;;;67.85;8.90;;;;;;;;;;5091837;28;20231;-69
2022/03/01 03:46:33;;;;;;;71.47;9.20;;;;;;;;;;5091745;28;20224;-68
2022/03/01 03:49:01;;;;;;;69.97;10.90;;;;;;;;;;5091756;28;20204;-69
2022/03/01 03:51:28;;;;;;;71.93;10.65;;;;;;;;;;5091959;28;20300;-69
2022/03/01 03:53:55;;;;;;;70.30;9.90;;;;;;;;;;5091889;28;20204;-69
2022/03/01 03:56:23;;;;;;;73.15;11.02;;;;;;;;;;5093500;28;20315;-69
2022/03/01 03:58:50;;;;;;;71.50;10.25;;;;;;;;;;5095649;28;20303;-70
2022/03/01 04:01:17;;;;;;;75.60;9.88;;;;;;;;;;5095755;28;20676;-69
2022/03/01 04:03:45;;;;;;;67.97;9.07;;;;;;;;;;5094207;28;20206;-69
2022/03/01 04:06:13;;;;;;;67.22;9.82;;;;;;;;;;5095852;28;20281;-69
2022/03/01 04:08:40;;;;;;;73.45;9.38;;;;;;;;;;5095507;28;20680;-70
2022/03/01 04:11:07;;;;;;;70.32;10.25;;;;;;;;;;5095791;28;20204;-69
2022/03/01 04:13:34;;;;;;;69.63;9.10;;;;;;;;;;5095577;28;20216;-69
2022/03/01 04:16:01;;;;;;;81.32;9.82;;;;;;;;;;5095672;28;20226;-69
2022/03/01 04:18:29;;;;;;;77.63;11.20;;;;;;;;;;5095300;28;20707;-69
2022/03/01 04:20:57;;;;;;;72.53;10.68;;;;;;;;;;5095694;28;20239;-69
2022/03/01 04:23:24;;;;;;;71.28;10.65;;;;;;;;;;5095415;28;20294;-69
2022/03/01 04:25:51;;;;;;;69.60;10.70;;;;;;;;;;5095284;28;20235;-69
2022/03/01 04:28:19;;;;;;;70.57;9.77;;;;;;;;;;5095423;28;20645;-70
2022/03/01 04:30:46;;;;;;;77.05;11.70;;;;;;;;;;5095715;28;20615;-69
2022/03/01 04:33:13;;;;;;;73.82;10.75;;;;;;;;;;5095487;28;20200;-69
2022/03/01 04:35:40;;;;;;;68.20;8.60;;;;;;;;;;5095239;28;20323;-69
2022/03/01 04:38:09;;;;;;;75.00;10.82;;;;;;;;;;5095452;28;20680;-69
2022/03/01 04:40:36;;;;;;;71.75;9.90;;;;;;;;;;5095204;28;20200;-69
2022/03/01 04:43:04;;;;;;;70.25;9.50;;;;;;;;;;5095028;28;20628;-69
2022/03/01 04:45:31;;;;;;;74.88;11.88;;;;;;;;;;5095070;28;20278;-69
2022/03/01 04:47:59;;;;;;;72.68;9.65;;;;;;;;;;5094923;28;20308;-69
2022/03/01 04:50:26;;;;;;;68.40;10.73;;;;;;;;;;5094860;28;20215;-69
2022/03/01 04:52:54;;;;;;;74.20;11.55;;;;;;;;;;5094935;28;20216;-69
2022/03/01 04:55:23;;;;;;;70.65;9.40;;;;;;;;;;5094663;28;20231;-70
2022/03/01 04:57:50;;;;;;;73.50;10.90;;;;;;;;;;5094823;28;20576;-68
2022/03/01 05:00:17;;;;;;;71.75;10.05;;;;;;;;;;5094821;28;20660;-68
2022/03/01 05:02:45;;;;;;;71.20;9.75;;;;;;;;;;5094922;28;20208;-69
2022/03/01 05:05:12;;;;;;;75.63;9.50;;;;;;;;;;5094639;28;20228;-68
2022/03/01 05:07:40;;;;;;;70.82;9.65;;;;;;;;;;5093552;28;20308;-71
2022/03/01 05:10:08;;;;;;;69.45;9.63;;;;;;;;;;5094571;28;20295;-69
2022/03/01 05:12:43;;;;;;;71.38;10.50;;;;;;;;;;5094617;28;20291;-70
2022/03/01 05:15:10;;;;;;;70.85;10.07;;;;;;;;;;5094574;28;20230;-69
2022/03/01 05:17:37;;;;;;;74.25;9.98;;;;;;;;;;5094363;28;20465;-68
2022/03/01 05:20:05;;;;;;;72.25;10.32;;;;;;;;;;5094484;28;20621;-69
2022/03/01 05:22:32;;;;;;;73.53;11.88;;;;;;;;;;5094210;28;20204;-69
2022/03/01 05:25:01;;;;;;;73.47;10.50;;;;;;;;;;5094569;28;20236;-69
2022/03/01 05:27:28;;;;;;;74.22;11.35;;;;;;;;;;5094097;28;20204;-69
2022/03/01 05:29:57;;;;;;;71.85;10.63;;;;;;;;;;5094307;28;20656;-68
2022/03/01 05:32:24;;;;;;;71.45;10.38;;;;;;;;;;5094264;28;20311;-69
2022/03/01 05:34:51;;;;;;;71.88;12.15;;;;;;;;;;5093893;28;20307;-69
2022/03/01 05:37:19;;;;;;;70.22;10.75;;;;;;;;;;5093962;28;20204;-69
2022/03/01 05:39:46;;;;;;;73.70;10.80;;;;;;;;;;5094277;28;20224;-70
2022/03/01 05:42:13;;;;;;;75.78;9.88;;;;;;;;;;5094144;28;20204;-69
2022/03/01 05:44:40;;;;;;;70.53;11.40;;;;;;;;;;5094108;28;20315;-69
2022/03/01 05:47:09;;;;;;;79.60;10.95;;;;;;;;;;5093794;28;20291;-71
2022/03/01 05:49:36;;;;;;;72.72;10.40;;;;;;;;;;5093638;28;20208;-70
2022/03/01 05:52:04;;;;;;;70.78;9.93;;;;;;;;;;5094068;28;20204;-69
2022/03/01 05:54:31;;;;;;;68.20;9.40;;;;;;;;;;5093929;28;20217;-69
2022/03/01 05:56:58;;;;;;;70.35;9.80;;;;;;;;;;5093869;28;20214;-68
2022/03/01 05:59:25;;;;;;;69.18;10.13;;;;;;;;;;5093426;28;20295;-68
2022/03/01 06:01:53;;;;;;;71.70;10.07;;;;;;;;;;5093600;28;20210;-71
2022/03/01 06:04:21;;;;;;;67.28;9.73;;;;;;;;;;5093259;28;20208;-69
2022/03/01 06:06:48;;;;;;;72.40;10.93;;;;;;;;;;5093442;28;20204;-69
2022/03/01 06:09:15;;;;;;;69.88;11.07;;;;;;;;;;5093121;28;20291;-69
2022/03/01 06:11:42;;;;;;;72.57;11.27;;;;;;;;;;5093529;28;20211;-69
2022/03/01 06:14:10;;;;;;;71.05;10.98;;;;;;;;;;5093328;28;20578;-69
2022/03/01 06:16:37;;;;;;;68.80;9.52;;;;;;;;;;5093107;28;20225;-68
2022/03/01 06:19:04;;;;;;;70.65;10.18;;;;;;;;;;5092723;28;20702;-68
2022/03/01 06:21:33;;;;;;;70.90;10.38;;;;;;;;;;5093151;28;20208;-68
2022/03/01 06:24:01;;;;;;;85.78;10.75;;;;;;;;;;5093038;28;20206;-69
2022/03/01 06:26:28;;;;;;;68.30;10.07;;;;;;;;;;5092982;28;20224;-69
2022/03/01 06:28:55;;;;;;;76.30;11.15;;;;;;;;;;5092486;28;20755;-69
2022/03/01 06:31:22;;;;;;;70.35;11.25;;;;;;;;;;5093202;28;20208;-69
2022/03/01 06:33:49;;;;;;;71.97;9.80;;;;;;;;;;5092790;28;20295;-69
2022/03/01 06:36:16;;;;;;;70.65;10.25;;;;;;;;;;5092912;28;20306;-69
2022/03/01 06:38:45;;;;;;;83.85;11.13;;;;;;;;;;5092583;28;20303;-68
2022/03/01 06:41:12;;;;;;;71.80;10.38;;;;;;;;;;5092879;28;20300;-69
2022/03/01 06:43:39;;;;;;;71.65;9.93;;;;;;;;;;5092600;28;20204;-68
2022/03/01 06:46:06;;;;;;;69.47;10.38;;;;;;;;;;5092608;28;20224;-68
2022/03/01 06:48:33;;;;;;;76.60;11.40;;;;;;;;;;5092715;28;20204;-68
2022/03/01 06:51:01;;;;;;;71.82;10.35;;;;;;;;;;5092738;28;20639;-68
2022/03/01 06:53:28;;;;;;;74.03;10.75;;;;;;;;;;5092524;28;20214;-68
2022/03/01 06:55:58;;;;;;;70.68;10.82;;;;;;;;;;5092484;28;20227;-69
2022/03/01 06:58:25;;;;;;;69.80;10.18;;;;;;;;;;5092526;28;20212;-68
2022/03/01 07:00:52;;;;;;;74.38;10.77;;;;;;;;;;5092770;28;20210;-69
2022/03/01 07:03:19;;;;;;;74.65;10.40;;;;;;;;;;5092610;28;20586;-68
2022/03/01 07:05:47;;;;;;;75.63;10.57;;;;;;;;;;5092313;28;20220;-69
2022/03/01 07:08:14;;;;;;;73.13;10.50;;;;;;;;;;5092461;28;20200;-69
2022/03/01 07:10:41;;;;;;;76.57;10.48;;;;;;;;;;5092320;28;20580;-69
2022/03/01 07:13:10;;;;;;;68.72;10.65;;;;;;;;;;5092551;28;20206;-69
2022/03/01 07:15:38;;;;;;;71.05;9.40;;;;;;;;;;5092366;28;20227;-70
2022/03/01 07:18:05;;;;;;;67.72;9.85;;;;;;;;;;5092088;28;20223;-71
2022/03/01 07:20:32;;;;;;;68.05;10.15;;;;;;;;;;5092267;28;20296;-69
2022/03/01 07:22:59;;;;;;;69.60;9.85;;;;;;;;;;5092138;28;20291;-69
2022/03/01 07:25:27;;;;;;;79.25;10.55;;;;;;;;;;5092197;28;20228;-69
2022/03/01 07:27:55;;;;;;;72.63;10.68;;;;;;;;;;5091997;28;20201;-69
2022/03/01 07:30:24;;;;;;;70.60;9.93;;;;;;;;;;5091926;28;20300;-69
2022/03/01 07:32:52;;;;;;;70.43;10.25;;;;;;;;;;5091970;28;20204;-69
2022/03/01 07:35:20;;;;;;;71.18;9.73;;;;;;;;;;5092063;28;20640;-68
2022/03/01 07:37:47;;;;;;;74.78;10.40;;;;;;;;;;5091570;28;20208;-70
2022/03/01 07:40:15;;;;;;;72.65;10.27;;;;;;;;;;5092025;28;20200;-68
2022/03/01 07:42:42;;;;;;;68.95;9.45;;;;;;;;;;5091790;28;20204;-68
2022/03/01 07:45:10;;;;;;;66.35;9.95;;;;;;;;;;5091665;28;20220;-69
2022/03/01 07:47:39;;;;;;;66.22;9.05;;;;;;;;;;5091849;28;20210;-68
2022/03/01 07:50:07;;;;;;;71.28;9.52;;;;;;;;;;5091832;28;20215;-68
2022/03/01 07:52:34;;;;;;;71.00;10.32;;;;;;;;;;5091577;28;20580;-68
2022/03/01 07:55:01;;;;;;;72.50;10.70;;;;;;;;;;5092149;28;20314;-69
2022/03/01 07:57:28;;;;;;;70.70;9.70;;;;;;;;;;5091585;28;20235;-69
2022/03/01 07:59:56;;;;;;;70.68;10.38;;;;;;;;;;5091722;28;20210;-69
2022/03/01 08:02:23;;;;;;;70.55;8.95;;;;;;;;;;5091670;28;20216;-69
2022/03/01 08:04:51;;;;;;;71.78;10.38;;;;;;;;;;5091518;28;20226;-70
2022/03/01 08:07:18;;;;;;;71.90;9.68;;;;;;;;;;5091582;28;20230;-69
2022/03/01 08:09:45;;;;;;;71.43;9.45;;;;;;;;;;5091703;28;20295;-69
2022/03/01 08:12:13;;;;;;;69.63;9.13;;;;;;;;;;5091968;28;20208;-69
2022/03/01 08:14:40;;;;;;;70.90;8.98;;;;;;;;;;5091976;28;20956;-69
2022/03/01 08:17:07;;;;;;;69.93;9.85;;;;;;;;;;5091470;28;20206;-70
2022/03/01 08:19:34;;;;;;;67.82;8.93;;;;;;;;;;5091465;28;20208;-68
2022/03/01 08:22:03;;;;;;;69.18;10.05;;;;;;;;;;5091532;28;20208;-69
2022/03/01 08:24:30;;;;;;;70.63;9.35;;;;;;;;;;5091463;28;20224;-71
2022/03/01 08:26:58;;;;;;;67.10;8.90;;;;;;;;;;5091531;28;20223;-69
2022/03/01 08:29:25;;;;;;;70.15;11.02;;;;;;;;;;5091032;28;20218;-70
2022/03/01 08:31:52;;;;;;;85.43;11.15;;;;;;;;;;5091362;28;20417;-69
2022/03/01 08:34:19;;;;;;;70.85;10.20;;;;;;;;;;5091649;28;20226;-70
2022/03/01 08:36:46;;;;;;;70.20;9.80;;;;;;;;;;5091354;28;20200;-69
2022/03/01 08:39:15;;;;;;;69.75;9.45;;;;;;;;;;5091463;28;20664;-69
2022/03/01 08:41:42;;;;;;;69.60;10.00;;;;;;;;;;5091244;28;20209;-70
2022/03/01 08:44:09;;;;;;;72.07;9.68;;;;;;;;;;5094020;28;20211;-70
2022/03/01 08:46:36;;;;;;;69.13;8.85;;;;;;;;;;5095008;28;20234;-69
2022/03/01 08:49:04;;;;;;;66.82;9.15;;;;;;;;;;5094913;28;20204;-70
2022/03/01 08:51:31;;;;;;;73.85;9.90;;;;;;;;;;5095108;28;20208;-70
2022/03/01 08:53:59;;;;;;;68.93;9.57;;;;;;;;;;5094825;28;20691;-69
2022/03/01 08:56:28;;;;;;;66.97;9.00;;;;;;;;;;5094897;28;20269;-70
2022/03/01 08:58:55;;;;;;;68.63;9.20;;;;;;;;;;5094327;28;20699;-70
2022/03/01 09:01:22;;;;;;;68.43;8.45;;;;;;;;;;5094784;28;20212;-70
2022/03/01 09:03:49;;;;;;;73.25;9.15;;;;;;;;;;5094961;28;20211;-69
2022/03/01 09:06:16;;;;;;;67.93;8.82;;;;;;;;;;5094879;28;20251;-70
2022/03/01 09:08:44;;;;;;;67.45;8.77;;;;;;;;;;5094455;28;20599;-72
2022/03/01 09:11:11;;;;;;;71.55;10.50;;;;;;;;;;5094699;28;20576;-70
2022/03/01 09:13:40;;;;;;;68.72;10.30;;;;;;;;;;5094365;28;20751;-69
2022/03/01 09:16:07;;;;;;;69.13;9.32;;;;;;;;;;5094464;28;20232;-70
2022/03/01 09:18:35;;;;;;;68.03;7.82;;;;;;;;;;5094307;28;20214;-70
2022/03/01 09:21:02;;;;;;;67.97;8.93;;;;;;;;;;5094364;28;20204;-71
2022/03/01 09:23:29;;;;;;;71.00;9.82;;;;;;;;;;5094418;28;20210;-69
2022/03/01 09:25:56;;;;;;;68.18;9.27;;;;;;;;;;5094179;28;20314;-71
2022/03/01 09:28:24;;;;;;;71.15;8.70;;;;;;;;;;5094003;28;20223;-70
2022/03/01 09:30:52;;;;;;;69.50;9.55;;;;;;;;;;5094618;28;20208;-70
2022/03/01 09:33:20;;;;;;;70.35;8.73;;;;;;;;;;5094051;28;20210;-70
2022/03/01 09:35:47;;;;;;;69.93;8.75;;;;;;;;;;5094030;28;20705;-71
2022/03/01 09:38:14;;;;;;;75.43;9.15;;;;;;;;;;5093941;28;20231;-70
2022/03/01 09:40:41;;;;;;;67.85;9.25;;;;;;;;;;5093926;28;20211;-70
2022/03/01 09:43:09;;;;;;;68.13;8.57;;;;;;;;;;5094080;28;20240;-71
2022/03/01 09:45:36;;;;;;;70.35;9.32;;;;;;;;;;5094271;28;20315;-70
2022/03/01 09:48:05;;;;;;;66.43;7.45;;;;;;;;;;5094014;28;20208;-70
2022/03/01 09:50:32;;;;;;;67.03;8.10;;;;;;;;;;5094003;28;20295;-70
2022/03/01 09:53:00;;;;;;;67.10;8.75;;;;;;;;;;5093962;28;20265;-68
2022/03/01 09:55:28;;;;;;;66.65;8.70;;;;;;;;;;5093227;28;20760;-69
2022/03/01 09:57:55;;;;;;;67.93;9.18;;;;;;;;;;5093517;28;20254;-69
2022/03/01 10:00:23;;;;;;;68.68;8.13;;;;;;;;;;5093802;28;20743;-69
2022/03/01 10:02:54;;;;;;;67.10;8.82;;;;;;;;;;5093877;28;20231;-69
2022/03/01 10:05:32;;;;;;;66.70;8.93;;;;;;;;;;5093645;28;20231;-70
2022/03/01 10:08:07;;;;;;;65.67;9.00;;;;;;;;;;5093356;28;20438;-69
2022/03/01 10:10:37;;;;;;;68.53;8.80;;;;;;;;;;5093746;28;20450;-69
2022/03/01 10:13:04;;;;;;;67.70;8.40;;;;;;;;;;5093470;28;20442;-69
2022/03/01 10:15:32;;;;;;;69.17;8.40;;;;;;;;;;5093373;28;20475;-69
2022/03/01 10:18:00;;;;;;;66.93;8.67;;;;;;;;;;5092480;28;20630;-71
2022/03/01 10:20:28;;;;;;;65.90;8.20;;;;;;;;;;5092879;28;20453;-69
2022/03/01 10:22:58;;;;;;;69.40;8.50;;;;;;;;;;5093306;28;20453;-69
2022/03/01 10:25:25;;;;;;;65.70;7.80;;;;;;;;;;5093520;28;20509;-70
2022/03/01 10:27:53;;;;;;;64.67;7.53;;;;;;;;;;5092808;28;20550;-70
2022/03/01 10:30:24;;;;;;;65.67;8.13;;;;;;;;;;5093212;28;20801;-68
2022/03/01 10:32:51;;;;;;;66.00;7.93;;;;;;;;;;5092891;28;20813;-70
2022/03/01 10:35:18;;;;;;;64.17;7.93;;;;;;;;;;5093321;28;20465;-71
2022/03/01 10:37:51;;;;;;;70.57;8.63;;;;;;;;;;5092772;28;20438;-70
2022/03/01 10:40:20;;;;;;;64.87;7.97;;;;;;;;;;5093148;28;20441;-71
2022/03/01 10:42:48;;;;;;;68.30;8.17;;;;;;;;;;5092944;28;20442;-71
2022/03/01 10:45:15;;;;;;;68.80;9.23;;;;;;;;;;5092814;28;20980;-70
2022/03/01 10:47:53;;;;;;;66.17;8.17;;;;;;;;;;5092802;28;20494;-71
2022/03/01 10:50:20;;;;;;;65.50;6.93;;;;;;;;;;5092938;28;20442;-69
2022/03/01 10:52:49;;;;;;;64.23;7.13;;;;;;;;;;5092488;28;20474;-69
2022/03/01 10:55:23;;;;;;;62.80;7.80;;;;;;;;;;5093139;28;20473;-69
2022/03/01 10:57:57;;;;;;;63.17;7.57;;;;;;;;;;5092225;28;20442;-69
2022/03/01 11:00:25;;;;;;;64.20;8.17;;;;;;;;;;5092847;28;20448;-72
2022/03/01 11:02:52;;;;;;;65.03;8.97;;;;;;;;;;5092761;28;20497;-69
2022/03/01 11:05:19;;;;;;;64.40;8.47;;;;;;;;;;5091677;28;20509;-70
2022/03/01 11:07:48;;;;;;;66.20;8.67;;;;;;;;;;5092315;28;20481;-71
2022/03/01 11:10:17;;;;;;;63.43;7.30;;;;;;;;;;5092558;28;20455;-71
2022/03/01 11:12:45;;;;;;;63.70;7.27;;;;;;;;;;5092634;28;20445;-69
2022/03/01 11:15:20;;;;;;;63.63;7.00;;;;;;;;;;5092398;28;20467;-70
2022/03/01 11:17:51;;;;;;;65.87;8.13;;;;;;;;;;5092219;28;20546;-69
2022/03/01 11:20:22;;;;;;;64.00;7.37;;;;;;;;;;5092538;28;20533;-69
2022/03/01 11:22:50;;;;;;;65.67;8.00;;;;;;;;;;5092378;28;20456;-70
2022/03/01 11:25:20;;;;;;;63.07;7.43;;;;;;;;;;5092102;28;20843;-72
2022/03/01 11:27:47;;;;;;;63.10;7.60;;;;;;;;;;5091793;28;20482;-70
2022/03/01 11:30:16;;;;;;;64.90;7.20;;;;;;;;;;5092511;28;20982;-70
2022/03/01 11:32:44;;;;;;;63.67;8.03;;;;;;;;;;5091933;28;20457;-70
2022/03/01 11:35:20;;;;;;;63.50;7.83;;;;;;;;;;5091958;28;20479;-70
2022/03/01 11:37:48;;;;;;;65.00;8.20;;;;;;;;;;5092234;28;20530;-69
2022/03/01 11:40:23;;;;;;;64.07;7.83;;;;;;;;;;5092298;28;20443;-69
2022/03/01 11:42:51;;;;;;;63.90;7.20;;;;;;;;;;5091939;28;20465;-70
2022/03/01 11:45:18;;;;;;;63.83;7.37;;;;;;;;;;5091966;28;20498;-69
2022/03/01 11:47:46;;;;;;;63.50;7.40;;;;;;;;;;5091567;28;20482;-69
2022/03/01 11:50:14;;;;;;;64.27;7.80;;;;;;;;;;5091866;28;20935;-69
2022/03/01 11:52:52;;;;;;;63.87;8.10;;;;;;;;;;5091923;28;20453;-69
2022/03/01 11:55:20;;;;;;;63.50;7.77;;;;;;;;;;5091654;28;20467;-70
2022/03/01 11:57:51;;;;;;;63.10;7.00;;;;;;;;;;5091609;28;20446;-68
2022/03/01 12:00:19;;;;;;;62.77;7.30;;;;;;;;;;5091908;28;20550;-69
2022/03/01 12:02:47;;;;;;;62.60;6.80;;;;;;;;;;5091847;28;20450;-70
2022/03/01 12:05:24;;;;;;;63.37;7.43;;;;;;;;;;5091704;28;20476;-71
2022/03/01 12:07:51;;;;;;;62.50;6.57;;;;;;;;;;5091458;28;20648;-70
2022/03/01 12:10:22;;;;;;;62.70;6.87;;;;;;;;;;5091672;28;20471;-70
2022/03/01 12:12:54;;;;;;;62.70;7.00;;;;;;;;;;5091349;28;20475;-69
2022/03/01 12:15:30;;;;;;;64.60;7.77;;;;;;;;;;5091798;28;20463;-70
2022/03/01 12:17:58;;;;;;;62.47;7.30;;;;;;;;;;5094096;28;20474;-69
2022/03/01 12:20:26;;;;;;;63.87;7.10;;;;;;;;;;5095715;28;20446;-69
2022/03/01 12:22:58;;;;;;;63.67;7.30;;;;;;;;;;5095678;28;20448;-70
2022/03/01 12:25:25;;;;;;;64.90;7.63;;;;;;;;;;5095086;28;20470;-70
2022/03/01 12:27:54;;;;;;;62.20;6.53;;;;;;;;;;5095140;28;21048;-69
2022/03/01 12:30:22;;;;;;;64.27;7.70;;;;;;;;;;5095497;28;20949;-69
2022/03/01 12:32:50;;;;;;;65.30;8.00;;;;;;;;;;5095395;28;20446;-69
2022/03/01 12:35:17;;;;;;;62.93;6.97;;;;;;;;;;5095444;28;20553;-69
2022/03/01 12:37:45;;;;;;;64.83;7.77;;;;;;;;;;5094936;28;20444;-70
2022/03/01 12:40:12;;;;;;;63.57;7.00;;;;;;;;;;5095583;28;20446;-70
2022/03/01 12:42:40;;;;;;;64.37;7.67;;;;;;;;;;5095424;28;20452;-70
2022/03/01 12:45:09;;;;;;;63.50;7.10;;;;;;;;;;5095145;28;20554;-70
2022/03/01 12:47:40;;;;;;;65.77;8.20;;;;;;;;;;5094811;28;20474;-70
2022/03/01 12:50:17;;;;;;;65.80;7.97;;;;;;;;;;5094995;28;20495;-69
2022/03/01 12:52:53;;;;;;;63.50;7.50;;;;;;;;;;5095066;28;20449;-69
2022/03/01 12:55:20;;;;;;;66.00;8.03;;;;;;;;;;5095022;28;20831;-70
2022/03/01 12:57:47;;;;;;;62.70;7.33;;;;;;;;;;5094571;28;21058;-69
2022/03/01 13:00:16;;;;;;;63.63;7.33;;;;;;;;;;5094857;28;20451;-69
2022/03/01 13:02:51;;;;;;;66.63;7.90;;;;;;;;;;5094609;28;20457;-69
2022/03/01 13:05:23;;;;;;;62.80;6.97;;;;;;;;;;5094916;28;20465;-70
2022/03/01 13:07:50;;;;;;;62.37;7.03;;;;;;;;;;5094456;28;20564;-71
2022/03/01 13:10:27;;;;;;;63.73;8.17;;;;;;;;;;5094674;28;20444;-68
2022/03/01 13:12:54;;;;;;;66.80;8.00;;;;;;;;;;5094588;28;20442;-70
2022/03/01 13:15:24;;;;;;;63.53;7.93;;;;;;;;;;5094392;28;20466;-70
2022/03/01 13:17:55;;;;;;;65.93;8.33;;;;;;;;;;5094210;28;20477;-71
2022/03/01 13:20:22;;;;;;;63.27;7.70;;;;;;;;;;5094607;28;21071;-70
2022/03/01 13:23:02;;;;;;;65.30;8.10;;;;;;;;;;5094265;28;20442;-70
2022/03/01 13:25:29;;;;;;;63.47;7.20;;;;;;;;;;5094260;28;20549;-70
2022/03/01 13:27:57;;;;;;;67.57;8.43;;;;;;;;;;5093261;28;20521;-70
2022/03/01 13:30:26;;;;;;;65.63;8.10;;;;;;;;;;5093712;28;20533;-69
2022/03/01 13:33:03;;;;;;;64.67;8.03;;;;;;;;;;5094392;28;20882;-69
2022/03/01 13:35:30;;;;;;;64.00;7.43;;;;;;;;;;5094195;28;20978;-69
2022/03/01 13:38:00;;;;;;;62.90;7.20;;;;;;;;;;5093974;28;20442;-69
2022/03/01 13:40:27;;;;;;;63.90;7.90;;;;;;;;;;5094335;28;20476;-69
2022/03/01 13:43:04;;;;;;;63.50;8.10;;;;;;;;;;5093867;28;20529;-69
2022/03/01 13:45:33;;;;;;;63.57;7.53;;;;;;;;;;5093882;28;20466;-70
2022/03/01 13:48:08;;;;;;;64.77;7.63;;;;;;;;;;5093751;28;20481;-69
2022/03/01 13:50:35;;;;;;;62.67;7.73;;;;;;;;;;5093836;28;20444;-69
2022/03/01 13:53:09;;;;;;;64.97;8.30;;;;;;;;;;5093700;28;20982;-69
2022/03/01 13:55:37;;;;;;;64.87;7.90;;;;;;;;;;5093875;28;20473;-69
2022/03/01 13:58:04;;;;;;;66.97;8.67;;;;;;;;;;5093278;28;20442;-69
2022/03/01 14:00:35;;;;;;;66.10;8.20;;;;;;;;;;5093696;28;20496;-70
2022/03/01 14:03:08;;;;;;;64.80;7.43;;;;;;;;;;5093710;28;20458;-69
2022/03/01 14:05:38;;;;;;;63.00;7.03;;;;;;;;;;5094395;28;20549;-70
2022/03/01 14:08:06;;;;;;;66.67;8.97;;;;;;;;;;5093409;28;21001;-69
2022/03/01 14:10:35;;;;;;;65.77;7.97;;;;;;;;;;5093745;28;20532;-70
2022/03/01 14:13:03;;;;;;;63.73;7.77;;;;;;;;;;5093248;28;20972;-69
2022/03/01 14:15:35;;;;;;;68.23;7.30;;;;;;;;;;5093230;28;20636;-69
2022/03/01 14:18:03;;;;;;;62.93;7.07;;;;;;;;;;5093085;28;20932;-69
2022/03/01 14:20:30;;;;;;;64.50;7.53;;;;;;;;;;5093606;28;20444;-68
2022/03/01 14:22:58;;;;;;;63.07;7.20;;;;;;;;;;5093230;28;20537;-68
2022/03/01 14:25:26;;;;;;;64.87;8.43;;;;;;;;;;5093268;28;20836;-69
2022/03/01 14:27:54;;;;;;;66.73;7.80;;;;;;;;;;5093033;28;20940;-69
2022/03/01 14:30:21;;;;;;;64.17;7.57;;;;;;;;;;5093621;28;20456;-69